Aérodrome :
LOGIN :

S'inscrire | Disclaimer

   EN    FR    IT 

 










Légende :    VFR   VFR Marginal   IFR   IFR Intensif   IFR Très Intensif
Visi : 
Plafond : 
>= 8 km
>= 3000ft
5 à 8 km
1000 à 3000 ft
1500m à 5 km
500 à 1000 ft
800 à 1500m
200 à 500 ft
< 800m
< 200 ft
Symboles :   Orages  Brouillard  Fortes neiges  Fortes précipitations  Vent > 20 kt
SIGMETs :   Divers  Orages  Givrage  Turbulence  Onde Orograph.  Cendres Volcan.






- Altitude de l'aérodrome : 124 ft
- Code IATA : RNS


LFRN - Rennes

DERNIER METAR :
  • 232130Z AUTO 19013KT 9999 FEW019 BKN026 BKN033 19/17 Q1007 TEMPO 4000 SHRA BKN008 BKN030CB

METARs EXPIRÉS :
  • 232100Z AUTO 19012KT 9999 BKN019 BKN028 BKN033 20/17 Q1007 TEMPO 4000 SHRA BKN008 BKN030CB
  • 232030Z AUTO 18012KT 9999 BKN018 BKN044 BKN230 20/17 Q1007 TEMPO 4000 SHRA BKN008 BKN030CB
  • 232000Z AUTO 18011KT 9999 FEW018 OVC044 20/17 Q1007 TEMPO 4000 SHRA BKN008 BKN030CB
  • 231930Z AUTO 20012KT 170V230 9999 BKN017 OVC042 21/17 Q1006 TEMPO 4000 SHRA BKN008 BKN030CB
  • 231900Z AUTO 20013KT 9999 OVC017 21/17 Q1006 TEMPO 21015G25KT 4000 SHRA BKN008 BKN030CB

TAF TAF LFRN
Valide du 23 à 18h jusqu'au 24 à 18h UTC


231700Z 2318/2418 21012KT 9999 SCT040
TEMPO 2318/2320 21015G25KT
PROB30
TEMPO 2318/2408 4000 SHRA BKN008 BKN030CB
TEMPO 2408/2418 4000 SHRA BKN030CB
PROB30
TEMPO 2412/2418 VRB15G25KT 2000 TSRA BKN012CB
ATIS : +33 2 99 67 72 50



MET'MAP, la Météo Aéronautique d'un coup d'oeil ! - Copyright ORBIFLY Décembre 2007 - Disclaimer

ORBIFLY MET'MAP TEAM :

Programmation & Développement : Alexandra Zaïnal
Sur une idée originale de : Baudouin d'Aumeries
Assistance à la programmation : Marc-Olivier Méhu
Soutien technique & logistique : Manuel Goepfert

Contact : metmap@orbifly.com




SOURCES & CREDITS :

   NOAA